createdAt,value
2018-09-29T00:00:23.312Z,64.25
2018-09-29T00:02:52.642Z,64.45
2018-09-29T00:05:22.289Z,64.68
2018-09-29T00:07:51.997Z,64.68
2018-09-29T00:10:21.661Z,65.41
2018-09-29T00:12:51.012Z,63.61
2018-09-29T00:15:20.385Z,64.55
2018-09-29T00:17:49.877Z,64.31
2018-09-29T00:20:21.137Z,64.81
2018-09-29T00:22:50.561Z,64.99
2018-09-29T00:25:20.237Z,63.94
2018-09-29T00:27:49.757Z,64.65
2018-09-29T00:30:19.182Z,65.05
2018-09-29T00:32:49.122Z,66.12
2018-09-29T00:35:18.709Z,65.15
2018-09-29T00:37:48.415Z,65.71
2018-09-29T00:40:18.042Z,65.78
2018-09-29T00:42:47.741Z,65.44
2018-09-29T00:45:17.384Z,64.52
2018-09-29T00:47:46.969Z,65.21
2018-09-29T00:50:16.783Z,63.83
2018-09-29T00:52:46.382Z,64.26
2018-09-29T00:55:16.406Z,64.47
2018-09-29T00:57:46.413Z,64.97
2018-09-29T01:00:16.416Z,64.46
2018-09-29T01:02:46.291Z,63.93
2018-09-29T01:05:16.299Z,65.67
2018-09-29T01:07:46.108Z,65.24
2018-09-29T01:10:15.920Z,64.85
2018-09-29T01:12:46.027Z,65.65
2018-09-29T01:15:15.778Z,65.09
2018-09-29T01:17:45.849Z,65.36
2018-09-29T01:20:15.691Z,64.25
2018-09-29T01:22:45.521Z,65.88
2018-09-29T01:25:15.574Z,66.14
2018-09-29T01:27:45.254Z,65.84
2018-09-29T01:30:15.510Z,64.54
2018-09-29T01:32:45.656Z,65.12
2018-09-29T01:35:15.592Z,65.70
2018-09-29T01:37:45.809Z,65.83
2018-09-29T01:40:15.768Z,65.03
2018-09-29T01:42:46.554Z,64.70
2018-09-29T01:45:16.338Z,63.99
2018-09-29T01:47:46.271Z,65.44
2018-09-29T01:50:16.377Z,66.48
2018-09-29T01:52:46.276Z,65.23
2018-09-29T01:55:16.003Z,66.36
2018-09-29T01:57:45.790Z,64.41
2018-09-29T02:00:15.677Z,64.96
2018-09-29T02:02:45.728Z,64.72
2018-09-29T02:05:16.064Z,64.57
2018-09-29T02:07:46.941Z,63.80
2018-09-29T02:10:17.037Z,64.28
2018-09-29T02:12:47.390Z,63.63
2018-09-29T02:15:17.307Z,64.10
2018-09-29T02:17:47.133Z,63.16
2018-09-29T02:20:16.857Z,63.32
2018-09-29T02:22:46.786Z,63.79
2018-09-29T02:25:16.391Z,63.21
2018-09-29T02:27:46.606Z,63.90
2018-09-29T02:30:16.127Z,63.00
2018-09-29T02:32:46.226Z,63.62
2018-09-29T02:35:15.554Z,63.62
2018-09-29T02:37:45.071Z,61.45
2018-09-29T02:40:14.636Z,61.83
2018-09-29T02:42:44.063Z,61.97
2018-09-29T02:45:13.403Z,62.62
2018-09-29T02:47:42.747Z,62.81
2018-09-29T02:50:12.076Z,62.68
2018-09-29T02:52:41.447Z,62.44
2018-09-29T02:55:10.792Z,61.72
2018-09-29T02:57:40.140Z,60.78
2018-09-29T03:00:09.450Z,61.37
2018-09-29T03:02:38.803Z,62.14
2018-09-29T03:05:08.145Z,61.89
2018-09-29T03:07:37.461Z,62.36
2018-09-29T03:10:06.803Z,62.26
2018-09-29T03:12:36.158Z,62.46
2018-09-29T03:15:05.614Z,62.32
2018-09-29T03:17:34.973Z,61.82
2018-09-29T03:20:05.285Z,63.01
2018-09-29T03:22:34.586Z,62.61
2018-09-29T03:25:03.988Z,61.88
2018-09-29T03:27:33.363Z,62.54
2018-09-29T03:30:02.675Z,62.42
2018-09-29T03:32:32.073Z,62.91
2018-09-29T03:35:01.454Z,62.45
2018-09-29T03:37:30.808Z,61.79
2018-09-29T03:40:00.196Z,63.10
2018-09-29T03:42:29.499Z,63.35
2018-09-29T03:44:58.812Z,63.23
2018-09-29T03:47:28.206Z,63.31
2018-09-29T03:49:57.534Z,63.41
2018-09-29T03:52:26.981Z,62.73
2018-09-29T03:54:56.366Z,63.71
2018-09-29T03:57:25.739Z,63.18
2018-09-29T03:59:55.076Z,63.81
2018-09-29T04:02:24.427Z,62.43
2018-09-29T04:04:54.336Z,63.13
2018-09-29T04:07:23.698Z,63.06
2018-09-29T04:09:53.134Z,62.95
2018-09-29T04:12:22.531Z,62.52
2018-09-29T04:14:51.945Z,62.36
2018-09-29T04:17:21.451Z,63.59
2018-09-29T04:19:50.919Z,63.51
2018-09-29T04:22:20.533Z,63.03
2018-09-29T04:24:50.042Z,63.36
2018-09-29T04:27:19.665Z,63.94
2018-09-29T04:29:49.505Z,63.69
2018-09-29T04:32:19.095Z,63.25
2018-09-29T04:34:48.501Z,63.02
2018-09-29T04:37:18.213Z,62.91
2018-09-29T04:39:47.985Z,62.55
2018-09-29T04:42:17.971Z,63.06
2018-09-29T04:44:48.378Z,61.69
2018-09-29T04:47:18.271Z,63.13
2018-09-29T04:49:48.211Z,63.05
2018-09-29T04:52:18.196Z,63.18
2018-09-29T04:54:48.343Z,61.39
2018-09-29T04:57:18.220Z,62.89
2018-09-29T04:59:47.976Z,62.59
2018-09-29T05:02:17.987Z,62.02
2018-09-29T05:04:48.456Z,61.75
2018-09-29T05:07:18.442Z,61.92
2018-09-29T05:09:48.503Z,62.35
2018-09-29T05:12:18.759Z,62.14
2018-09-29T05:14:48.688Z,61.48
2018-09-29T05:17:18.442Z,61.80
2018-09-29T05:19:48.500Z,60.75
2018-09-29T05:22:18.442Z,60.12
2018-09-29T05:24:48.939Z,60.74
2018-09-29T05:27:18.604Z,61.96
2018-09-29T05:29:48.692Z,61.86
2018-09-29T05:32:18.562Z,62.29
2018-09-29T05:34:47.935Z,61.03
2018-09-29T05:37:17.970Z,61.34
2018-09-29T05:39:48.701Z,61.85
2018-09-29T05:42:19.155Z,60.41
2018-09-29T05:44:49.738Z,60.71
2018-09-29T05:47:19.905Z,61.05
2018-09-29T05:49:50.576Z,61.12
2018-09-29T05:52:20.351Z,61.47
2018-09-29T05:54:50.292Z,61.33
2018-09-29T05:57:19.932Z,60.99
2018-09-29T05:59:49.920Z,61.20
2018-09-29T06:02:19.997Z,62.31
2018-09-29T06:04:50.774Z,60.98
2018-09-29T06:07:20.857Z,61.24
2018-09-29T06:09:50.598Z,62.35
2018-09-29T06:12:20.309Z,61.70
2018-09-29T06:14:50.013Z,61.33
2018-09-29T06:17:19.817Z,61.89
2018-09-29T06:19:49.428Z,61.80
2018-09-29T06:22:19.082Z,61.72
2018-09-29T06:24:48.890Z,61.43
2018-09-29T06:27:18.723Z,62.39
2018-09-29T06:29:48.655Z,63.05
2018-09-29T06:32:18.443Z,62.53
2018-09-29T06:34:47.834Z,62.27
2018-09-29T06:37:17.491Z,62.59
2018-09-29T06:39:47.610Z,62.88
2018-09-29T06:42:17.183Z,62.13
2018-09-29T06:44:46.959Z,62.90
2018-09-29T06:47:17.026Z,62.89
2018-09-29T06:49:46.834Z,62.34
2018-09-29T06:52:16.814Z,63.09
2018-09-29T06:54:46.573Z,62.87
2018-09-29T06:57:16.731Z,63.01
2018-09-29T06:59:46.773Z,62.20
2018-09-29T07:02:16.504Z,62.14
2018-09-29T07:04:46.068Z,62.57
2018-09-29T07:07:16.103Z,62.93
2018-09-29T07:09:46.044Z,62.31
2018-09-29T07:12:15.990Z,62.63
2018-09-29T07:14:45.735Z,62.40
2018-09-29T07:17:15.249Z,62.59
2018-09-29T07:19:44.728Z,63.11
2018-09-29T07:22:14.903Z,62.01
2018-09-29T07:24:44.859Z,62.36
2018-09-29T07:27:14.622Z,62.03
2018-09-29T07:29:44.539Z,63.05
2018-09-29T07:32:14.052Z,62.60
2018-09-29T07:34:43.623Z,62.04
2018-09-29T07:37:19.165Z,61.83
2018-09-29T07:39:48.729Z,61.96
2018-09-29T07:42:18.450Z,61.97
2018-09-29T07:44:48.626Z,62.93
2018-09-29T07:47:18.623Z,61.75
2018-09-29T07:49:48.544Z,60.99
2018-09-29T07:52:18.469Z,61.71
2018-09-29T07:54:48.169Z,60.71
2018-09-29T07:57:17.974Z,62.05
2018-09-29T07:59:47.919Z,61.62
2018-09-29T08:02:18.209Z,60.54
2018-09-29T08:04:47.935Z,59.39
2018-09-29T08:07:17.927Z,60.22
2018-09-29T08:09:47.657Z,59.13
2018-09-29T08:12:17.645Z,60.05
2018-09-29T08:14:47.592Z,57.86
2018-09-29T08:17:17.664Z,57.87
2018-09-29T08:19:47.615Z,56.87
2018-09-29T08:22:17.531Z,56.91
2018-09-29T08:24:47.188Z,55.73
2018-09-29T08:27:16.904Z,53.96
2018-09-29T08:29:47.153Z,54.14
2018-09-29T08:32:17.277Z,54.60
2018-09-29T08:34:46.614Z,54.43
2018-09-29T08:37:17.139Z,54.59
2018-09-29T08:39:46.862Z,54.71
2018-09-29T08:42:16.686Z,55.73
2018-09-29T08:44:46.708Z,55.32
2018-09-29T08:47:16.523Z,56.53
2018-09-29T08:49:46.745Z,56.16
2018-09-29T08:52:16.698Z,55.32
2018-09-29T08:54:46.771Z,54.99
2018-09-29T08:57:17.225Z,54.71
2018-09-29T08:59:47.333Z,55.06
2018-09-29T09:02:17.120Z,52.97
2018-09-29T09:04:47.913Z,53.79
2018-09-29T09:07:18.074Z,53.92
2018-09-29T09:09:48.648Z,52.15
2018-09-29T09:12:18.908Z,50.55
2018-09-29T09:14:49.091Z,51.91
2018-09-29T09:17:19.064Z,50.80
2018-09-29T09:19:49.859Z,48.89
2018-09-29T09:22:20.081Z,49.41
2018-09-29T09:24:50.075Z,47.83
2018-09-29T09:27:19.976Z,46.45
2018-09-29T09:29:50.041Z,46.46
2018-09-29T09:32:19.788Z,47.75
2018-09-29T09:34:49.125Z,45.50
2018-09-29T09:37:19.125Z,45.56
2018-09-29T09:39:49.084Z,45.31
2018-09-29T09:42:19.341Z,44.65
2018-09-29T09:44:49.311Z,45.50
2018-09-29T09:47:19.327Z,44.85
2018-09-29T09:49:49.317Z,44.89
2018-09-29T09:52:19.444Z,44.84
2018-09-29T09:54:49.432Z,43.44
2018-09-29T09:57:19.233Z,43.66
2018-09-29T09:59:49.167Z,43.75
2018-09-29T10:02:24.250Z,43.95
2018-09-29T10:04:53.806Z,43.11
2018-09-29T10:07:23.608Z,43.96
2018-09-29T10:09:53.260Z,43.62
2018-09-29T10:12:22.997Z,42.45
2018-09-29T10:14:52.725Z,44.32
2018-09-29T10:17:22.612Z,43.79
2018-09-29T10:19:52.392Z,44.32
2018-09-29T10:22:22.931Z,44.01
2018-09-29T10:24:52.504Z,45.68
2018-09-29T10:27:22.010Z,44.52
2018-09-29T10:29:51.785Z,45.97
2018-09-29T10:32:21.276Z,43.87
2018-09-29T10:34:50.654Z,44.10
2018-09-29T10:37:21.372Z,45.28
2018-09-29T10:39:51.201Z,45.39
2018-09-29T10:42:20.849Z,43.85
2018-09-29T10:44:50.967Z,45.66
2018-09-29T10:47:20.853Z,43.00
2018-09-29T10:49:50.992Z,44.18
2018-09-29T10:52:21.207Z,43.67
2018-09-29T10:54:51.170Z,43.64
2018-09-29T10:57:20.818Z,43.20
2018-09-29T10:59:50.821Z,44.41
2018-09-29T11:02:20.578Z,44.83
2018-09-29T11:04:50.421Z,42.93
2018-09-29T11:07:20.062Z,44.63
2018-09-29T11:09:49.992Z,43.44
2018-09-29T11:12:19.744Z,44.24
2018-09-29T11:14:49.582Z,42.67
2018-09-29T11:17:19.370Z,42.06
2018-09-29T11:19:49.421Z,43.09
2018-09-29T11:22:19.426Z,43.48
2018-09-29T11:24:49.456Z,44.34
2018-09-29T11:27:19.025Z,42.60
2018-09-29T11:29:48.725Z,42.60
2018-09-29T11:32:18.299Z,41.62
2018-09-29T11:34:48.261Z,41.17
2018-09-29T11:37:18.031Z,41.99
2018-09-29T11:39:47.844Z,43.43
2018-09-29T11:42:18.387Z,44.16
2018-09-29T11:44:48.146Z,42.12
2018-09-29T11:47:17.781Z,41.84
2018-09-29T11:49:47.506Z,41.07
2018-09-29T11:52:17.352Z,42.26
2018-09-29T11:54:47.097Z,42.04
2018-09-29T11:57:17.118Z,43.95
2018-09-29T11:59:47.023Z,43.54
2018-09-29T12:02:17.021Z,42.58
2018-09-29T12:04:46.541Z,43.46
2018-09-29T12:07:16.252Z,40.61
2018-09-29T12:09:46.020Z,40.76
2018-09-29T12:12:15.947Z,41.05
2018-09-29T12:14:45.775Z,42.58
2018-09-29T12:17:15.704Z,41.68
2018-09-29T12:19:45.705Z,41.95
2018-09-29T12:22:15.423Z,41.30
2018-09-29T12:24:46.683Z,41.89
2018-09-29T12:27:17.512Z,40.83
2018-09-29T12:29:47.832Z,40.96
2018-09-29T12:32:17.990Z,40.89
2018-09-29T12:34:48.051Z,42.45
2018-09-29T12:37:18.168Z,42.02
2018-09-29T12:39:48.114Z,40.28
2018-09-29T12:42:17.846Z,40.13
2018-09-29T12:44:47.519Z,41.57
2018-09-29T12:47:17.329Z,41.29
2018-09-29T12:49:47.121Z,40.88
2018-09-29T12:52:16.918Z,43.19
2018-09-29T12:54:46.642Z,42.25
2018-09-29T12:57:16.603Z,41.70
2018-09-29T12:59:46.453Z,40.97
2018-09-29T13:02:16.533Z,41.90
2018-09-29T13:04:46.459Z,39.85
2018-09-29T13:07:16.593Z,40.93
2018-09-29T13:09:46.429Z,39.77
2018-09-29T13:12:16.008Z,41.63
2018-09-29T13:14:46.013Z,42.68
2018-09-29T13:17:16.238Z,42.05
2018-09-29T13:19:46.385Z,42.69
2018-09-29T13:22:16.149Z,41.64
2018-09-29T13:24:46.109Z,40.42
2018-09-29T13:27:15.880Z,41.03
2018-09-29T13:29:45.821Z,39.88
2018-09-29T13:32:16.262Z,41.55
2018-09-29T13:34:47.088Z,41.22
2018-09-29T13:37:17.354Z,41.49
2018-09-29T13:39:47.435Z,40.91
2018-09-29T13:42:18.449Z,40.88
2018-09-29T13:44:48.599Z,41.14
2018-09-29T13:47:18.951Z,41.11
2018-09-29T13:49:49.327Z,42.03
2018-09-29T13:52:19.033Z,40.18
2018-09-29T13:54:49.520Z,39.00
2018-09-29T13:57:19.397Z,39.64
2018-09-29T13:59:49.109Z,40.97
2018-09-29T14:02:19.184Z,43.14
2018-09-29T14:04:49.260Z,41.87
2018-09-29T14:07:19.110Z,41.06
2018-09-29T14:09:48.967Z,40.46
2018-09-29T14:12:18.822Z,40.80
2018-09-29T14:14:48.452Z,39.83
2018-09-29T14:17:18.344Z,40.02
2018-09-29T14:19:48.708Z,39.50
2018-09-29T14:22:18.689Z,40.53
2018-09-29T14:24:48.695Z,41.53
2018-09-29T14:27:18.555Z,41.02
2018-09-29T14:29:48.564Z,40.61
2018-09-29T14:32:18.449Z,41.48
2018-09-29T14:34:49.048Z,41.43
2018-09-29T14:37:19.169Z,40.16
2018-09-29T14:39:49.340Z,40.01
2018-09-29T14:42:19.225Z,41.01
2018-09-29T14:44:49.200Z,40.99
2018-09-29T14:47:18.929Z,40.93
2018-09-29T14:49:48.734Z,40.28
2018-09-29T14:52:18.751Z,41.39
2018-09-29T14:54:48.902Z,40.17
2018-09-29T14:57:18.618Z,40.42
2018-09-29T14:59:48.448Z,40.69
2018-09-29T15:02:18.255Z,40.47
2018-09-29T15:04:48.210Z,41.04
2018-09-29T15:07:18.194Z,41.13
2018-09-29T15:09:48.318Z,41.81
2018-09-29T15:12:19.250Z,41.89
2018-09-29T15:14:49.309Z,42.50
2018-09-29T15:17:19.294Z,42.97
2018-09-29T15:19:49.346Z,43.74
2018-09-29T15:22:19.394Z,42.97
2018-09-29T15:24:49.467Z,45.03
2018-09-29T15:27:20.240Z,45.36
2018-09-29T15:29:50.137Z,44.65
2018-09-29T15:32:20.173Z,44.27
2018-09-29T15:34:50.190Z,43.46
2018-09-29T15:37:20.314Z,44.05
2018-09-29T15:39:50.349Z,44.46
2018-09-29T15:42:21.046Z,44.86
2018-09-29T15:44:50.885Z,44.77
2018-09-29T15:47:20.726Z,45.27
2018-09-29T15:49:50.420Z,46.08
2018-09-29T15:52:20.452Z,45.96
2018-09-29T15:54:50.716Z,45.82
2018-09-29T15:57:20.732Z,45.40
2018-09-29T15:59:50.368Z,46.70
2018-09-29T16:02:20.044Z,46.77
2018-09-29T16:04:49.580Z,46.59
2018-09-29T16:07:19.495Z,45.57
2018-09-29T16:09:49.558Z,45.61
2018-09-29T16:12:19.455Z,46.07
2018-09-29T16:14:49.658Z,44.93
2018-09-29T16:17:19.745Z,45.61
2018-09-29T16:19:49.313Z,46.40
2018-09-29T16:22:19.234Z,45.39
2018-09-29T16:24:49.013Z,45.60
2018-09-29T16:27:18.781Z,45.59
2018-09-29T16:29:48.543Z,44.82
2018-09-29T16:32:18.345Z,45.47
2018-09-29T16:34:48.187Z,45.38
2018-09-29T16:37:17.995Z,45.67
2018-09-29T16:39:48.497Z,46.43
2018-09-29T16:42:18.343Z,46.71
2018-09-29T16:44:48.239Z,46.74
2018-09-29T16:47:18.005Z,47.03
2018-09-29T16:49:48.231Z,47.35
2018-09-29T16:52:18.296Z,47.41
2018-09-29T16:54:48.117Z,46.73
2018-09-29T16:57:18.197Z,47.51
2018-09-29T16:59:48.056Z,46.60
2018-09-29T17:02:18.262Z,47.62
2018-09-29T17:04:48.345Z,46.66
2018-09-29T17:07:17.981Z,47.09
2018-09-29T17:09:47.577Z,47.17
2018-09-29T17:12:18.045Z,47.76
2018-09-29T17:14:48.205Z,48.05
2018-09-29T17:17:18.118Z,49.31
2018-09-29T17:19:48.349Z,47.50
2018-09-29T17:22:18.470Z,47.95
2018-09-29T17:24:48.495Z,47.92
2018-09-29T17:27:18.630Z,48.28
2018-09-29T17:29:48.708Z,47.73
2018-09-29T17:32:18.937Z,48.96
2018-09-29T17:34:49.270Z,50.33
2018-09-29T17:37:19.610Z,50.13
2018-09-29T17:39:49.642Z,50.12
2018-09-29T17:42:19.413Z,50.45
2018-09-29T17:44:49.592Z,49.35
2018-09-29T17:47:19.503Z,50.56
2018-09-29T17:49:49.345Z,49.59
2018-09-29T17:52:19.577Z,49.89
2018-09-29T17:54:49.880Z,49.92
2018-09-29T17:57:19.680Z,50.46
2018-09-29T17:59:49.410Z,50.25
2018-09-29T18:02:19.715Z,50.77
2018-09-29T18:04:49.611Z,51.05
2018-09-29T18:07:19.434Z,49.59
2018-09-29T18:09:49.190Z,50.25
2018-09-29T18:12:19.915Z,51.25
2018-09-29T18:14:49.993Z,50.49
2018-09-29T18:17:19.551Z,50.71
2018-09-29T18:19:49.493Z,50.21
2018-09-29T18:22:19.595Z,50.26
2018-09-29T18:24:49.372Z,50.91
2018-09-29T18:27:19.509Z,50.48
2018-09-29T18:29:49.355Z,50.43
2018-09-29T18:32:19.458Z,50.65
2018-09-29T18:34:49.487Z,50.80
2018-09-29T18:37:19.235Z,51.05
2018-09-29T18:39:49.283Z,50.24
2018-09-29T18:42:19.491Z,49.93
2018-09-29T18:44:49.153Z,50.72
2018-09-29T18:47:18.851Z,50.00
2018-09-29T18:49:48.842Z,51.02
2018-09-29T18:52:18.757Z,50.75
2018-09-29T18:54:48.620Z,50.58
2018-09-29T18:57:18.490Z,50.65
2018-09-29T18:59:48.540Z,50.99
2018-09-29T19:02:18.331Z,51.29
2018-09-29T19:04:48.161Z,51.02
2018-09-29T19:07:18.227Z,50.94
2018-09-29T19:09:48.085Z,50.38
2018-09-29T19:12:17.854Z,50.54
2018-09-29T19:14:47.851Z,50.27
2018-09-29T19:17:17.854Z,50.35
2018-09-29T19:19:47.998Z,49.67
2018-09-29T19:22:17.913Z,49.76
2018-09-29T19:24:47.659Z,51.15
2018-09-29T19:27:17.259Z,52.29
2018-09-29T19:29:47.019Z,51.20
2018-09-29T19:32:17.101Z,51.92
2018-09-29T19:34:47.010Z,51.71
2018-09-29T19:37:16.797Z,51.37
2018-09-29T19:39:47.088Z,50.24
2018-09-29T19:42:17.316Z,51.38
2018-09-29T19:44:47.462Z,52.38
2018-09-29T19:47:17.656Z,51.90
2018-09-29T19:49:47.327Z,51.79
2018-09-29T19:52:16.927Z,51.77
2018-09-29T19:54:46.783Z,52.08
2018-09-29T19:57:16.315Z,52.47
2018-09-29T19:59:45.897Z,52.80
2018-09-29T20:02:15.777Z,52.24
2018-09-29T20:04:45.770Z,52.47
2018-09-29T20:07:15.880Z,54.06
2018-09-29T20:09:45.799Z,54.49
2018-09-29T20:12:15.397Z,53.60
2018-09-29T20:14:45.564Z,52.90
2018-09-29T20:17:15.275Z,53.72
2018-09-29T20:19:45.137Z,53.91
2018-09-29T20:22:14.862Z,53.75
2018-09-29T20:24:44.583Z,54.22
2018-09-29T20:27:14.484Z,53.26
2018-09-29T20:29:44.362Z,54.21
2018-09-29T20:32:14.140Z,53.67
2018-09-29T20:34:43.611Z,54.00
2018-09-29T20:37:13.859Z,53.91
2018-09-29T20:39:43.552Z,53.67
2018-09-29T20:42:13.532Z,54.11
2018-09-29T20:44:43.415Z,54.56
2018-09-29T20:47:13.267Z,54.57
2018-09-29T20:49:43.107Z,54.96
2018-09-29T20:52:13.031Z,54.68
2018-09-29T20:54:43.146Z,54.69
2018-09-29T20:57:12.813Z,54.78
2018-09-29T20:59:42.660Z,54.08
2018-09-29T21:02:12.711Z,55.08
2018-09-29T21:04:42.601Z,54.52
2018-09-29T21:07:12.710Z,54.46
2018-09-29T21:09:42.982Z,55.09
2018-09-29T21:12:12.980Z,54.25
2018-09-29T21:14:43.198Z,54.57
2018-09-29T21:17:12.891Z,54.34
2018-09-29T21:19:43.152Z,54.45
2018-09-29T21:22:12.888Z,54.32
2018-09-29T21:24:42.801Z,54.08
2018-09-29T21:27:12.642Z,54.31
2018-09-29T21:29:43.047Z,54.29
2018-09-29T21:32:12.891Z,54.89
2018-09-29T21:34:42.964Z,55.28
2018-09-29T21:37:13.146Z,55.56
2018-09-29T21:39:43.275Z,54.57
2018-09-29T21:42:13.590Z,55.56
2018-09-29T21:44:43.954Z,55.62
2018-09-29T21:47:13.752Z,55.72
2018-09-29T21:49:43.572Z,55.87
2018-09-29T21:52:13.600Z,55.40
2018-09-29T21:54:43.477Z,55.60
2018-09-29T21:57:13.640Z,55.20
2018-09-29T21:59:43.495Z,56.17
2018-09-29T22:02:13.978Z,55.27
2018-09-29T22:04:44.111Z,56.24
2018-09-29T22:07:14.061Z,56.03
2018-09-29T22:09:43.957Z,56.11
2018-09-29T22:12:13.583Z,55.90
2018-09-29T22:14:43.359Z,55.75
2018-09-29T22:17:13.180Z,56.20
2018-09-29T22:19:42.964Z,55.95
2018-09-29T22:22:12.759Z,55.81
2018-09-29T22:24:42.806Z,55.89
2018-09-29T22:27:12.597Z,55.81
2018-09-29T22:29:42.821Z,56.35
2018-09-29T22:32:12.759Z,56.78
2018-09-29T22:34:42.568Z,57.00
2018-09-29T22:37:12.483Z,56.72
2018-09-29T22:39:42.698Z,56.99
2018-09-29T22:42:13.098Z,57.14
2018-09-29T22:44:43.047Z,56.90
2018-09-29T22:47:13.414Z,56.54
2018-09-29T22:49:43.384Z,57.24
2018-09-29T22:52:13.353Z,57.25
2018-09-29T22:54:43.434Z,56.98
2018-09-29T22:57:13.535Z,57.73
2018-09-29T22:59:43.257Z,57.38
2018-09-29T23:02:13.238Z,56.83
2018-09-29T23:04:42.665Z,57.32
2018-09-29T23:07:12.295Z,56.68
2018-09-29T23:09:41.884Z,56.78
2018-09-29T23:12:11.521Z,57.62
2018-09-29T23:14:41.121Z,57.79
2018-09-29T23:17:10.623Z,57.71
2018-09-29T23:19:40.669Z,58.33
2018-09-29T23:22:10.677Z,58.07
2018-09-29T23:24:40.489Z,58.37
2018-09-29T23:27:10.327Z,57.48
2018-09-29T23:29:39.952Z,58.31
2018-09-29T23:32:09.563Z,58.50
2018-09-29T23:34:39.131Z,58.64
2018-09-29T23:37:08.670Z,58.81
2018-09-29T23:39:38.029Z,58.82
2018-09-29T23:42:07.395Z,59.02
2018-09-29T23:44:36.794Z,58.96
2018-09-29T23:47:06.105Z,59.09
2018-09-29T23:49:35.542Z,59.17
2018-09-29T23:52:04.947Z,59.27
2018-09-29T23:54:34.472Z,59.63
2018-09-29T23:57:03.781Z,58.52
2018-09-29T23:59:33.221Z,59.29
